createdAt,value
2022-08-12T00:02:44.279Z,37.50
2022-08-12T00:05:31.355Z,38.23
2022-08-12T00:08:16.775Z,37.79
2022-08-12T00:11:12.229Z,37.93
2022-08-12T00:13:57.913Z,37.68
2022-08-12T00:16:46.651Z,37.78
2022-08-12T00:19:32.278Z,37.65
2022-08-12T00:22:18.959Z,37.76
2022-08-12T00:25:05.181Z,38.24
2022-08-12T00:27:51.509Z,38.30
2022-08-12T00:30:36.710Z,37.74
2022-08-12T00:33:22.139Z,38.58
2022-08-12T00:36:17.804Z,39.18
2022-08-12T00:39:17.154Z,38.55
2022-08-12T00:42:03.039Z,38.44
2022-08-12T00:44:29.873Z,38.76
2022-08-12T00:47:01.742Z,39.78
2022-08-12T00:49:30.565Z,39.31
2022-08-12T00:52:12.114Z,39.98
2022-08-12T00:54:44.441Z,39.82
2022-08-12T00:57:10.966Z,39.27
2022-08-12T00:59:43.828Z,40.04
2022-08-12T01:02:14.648Z,39.44
2022-08-12T01:05:02.371Z,40.19
2022-08-12T01:07:48.157Z,39.97
2022-08-12T01:10:33.445Z,39.47
2022-08-12T01:13:07.261Z,39.83
2022-08-12T01:15:47.070Z,39.46
2022-08-12T01:18:14.523Z,39.88
2022-08-12T01:21:04.031Z,39.76
2022-08-12T01:23:57.152Z,40.19
2022-08-12T01:26:25.490Z,40.82
2022-08-12T01:28:58.616Z,41.13
2022-08-12T01:31:27.232Z,41.00
2022-08-12T01:34:04.552Z,40.57
2022-08-12T01:36:44.432Z,40.57
2022-08-12T01:39:11.102Z,40.63
2022-08-12T01:41:53.556Z,41.26
2022-08-12T01:44:22.519Z,40.95
2022-08-12T01:47:04.240Z,41.54
2022-08-12T01:50:08.239Z,40.99
2022-08-12T01:52:59.935Z,41.60
2022-08-12T01:55:35.264Z,42.20
2022-08-12T01:58:18.744Z,42.14
2022-08-12T02:00:58.657Z,42.12
2022-08-12T02:03:55.045Z,41.82
2022-08-12T02:06:58.900Z,41.53
2022-08-12T02:10:11.442Z,42.01
2022-08-12T02:13:10.011Z,41.83
2022-08-12T02:15:51.237Z,42.21
2022-08-12T02:18:34.212Z,42.14
2022-08-12T02:21:05.754Z,42.77
2022-08-12T02:23:34.769Z,42.45
2022-08-12T02:26:09.348Z,42.17
2022-08-12T02:28:38.325Z,42.24
2022-08-12T02:31:06.648Z,42.62
2022-08-12T02:33:34.280Z,42.56
2022-08-12T02:36:02.553Z,42.90
2022-08-12T02:38:31.312Z,43.09
2022-08-12T02:41:01.314Z,42.93
2022-08-12T02:43:37.934Z,43.08
2022-08-12T02:46:14.039Z,43.43
2022-08-12T02:48:51.491Z,42.85
2022-08-12T02:51:23.354Z,42.42
2022-08-12T02:54:04.480Z,43.13
2022-08-12T02:56:41.040Z,42.85
2022-08-12T02:59:16.508Z,43.00
2022-08-12T03:01:50.832Z,43.13
2022-08-12T03:04:26.900Z,41.50
2022-08-12T03:07:11.067Z,42.16
2022-08-12T03:09:59.340Z,42.55
2022-08-12T03:12:36.457Z,42.87
2022-08-12T03:15:18.030Z,42.93
2022-08-12T03:18:25.893Z,42.69
2022-08-12T03:20:43.238Z,42.40
2022-08-12T03:23:17.553Z,42.63
2022-08-12T03:26:00.752Z,42.36
2022-08-12T03:28:49.696Z,42.49
2022-08-12T03:31:19.654Z,42.49
2022-08-12T03:34:02.003Z,42.20
2022-08-12T03:36:35.197Z,42.78
2022-08-12T03:39:17.611Z,42.65
2022-08-12T03:41:58.013Z,42.57
2022-08-12T03:44:57.776Z,42.79
2022-08-12T03:47:58.415Z,42.83
2022-08-12T03:50:44.224Z,42.39
2022-08-12T03:53:30.725Z,42.57
2022-08-12T03:56:16.025Z,42.67
2022-08-12T03:59:01.563Z,42.85
2022-08-12T04:01:28.231Z,42.81
2022-08-12T04:03:55.368Z,42.71
2022-08-12T04:06:34.743Z,43.79
2022-08-12T04:09:16.093Z,43.52
2022-08-12T04:12:03.697Z,43.76
2022-08-12T04:14:31.570Z,43.73
2022-08-12T04:16:58.519Z,43.69
2022-08-12T04:19:26.494Z,43.96
2022-08-12T04:22:02.311Z,43.70
2022-08-12T04:24:37.966Z,44.34
2022-08-12T04:27:08.862Z,43.97
2022-08-12T04:30:21.194Z,44.08
2022-08-12T04:32:24.981Z,44.05
2022-08-12T04:34:51.844Z,43.96
2022-08-12T04:37:18.990Z,44.25
2022-08-12T04:39:49.032Z,44.51
2022-08-12T04:42:16.317Z,44.66
2022-08-12T04:44:43.403Z,44.62
2022-08-12T04:47:14.315Z,44.66
2022-08-12T04:49:43.254Z,44.34
2022-08-12T04:52:10.269Z,44.63
2022-08-12T04:54:37.788Z,44.58
2022-08-12T04:57:05.778Z,45.05
2022-08-12T04:59:47.750Z,45.08
2022-08-12T05:02:20.885Z,45.51
2022-08-12T05:04:51.857Z,45.23
2022-08-12T05:07:19.599Z,44.82
2022-08-12T05:10:00.441Z,45.21
2022-08-12T05:12:34.208Z,45.88
2022-08-12T05:15:00.820Z,45.11
2022-08-12T05:17:28.241Z,45.11
2022-08-12T05:19:57.458Z,45.29
2022-08-12T05:22:26.290Z,45.05
2022-08-12T05:24:53.179Z,45.60
2022-08-12T05:27:19.803Z,45.46
2022-08-12T05:30:08.355Z,45.46
2022-08-12T05:32:36.759Z,45.62
2022-08-12T05:35:06.642Z,45.97
2022-08-12T05:37:34.861Z,45.73
2022-08-12T05:40:08.350Z,45.86
2022-08-12T05:42:46.688Z,45.72
2022-08-12T05:45:13.526Z,45.84
2022-08-12T05:47:53.670Z,45.83
2022-08-12T05:50:20.911Z,46.14
2022-08-12T05:52:50.419Z,45.80
2022-08-12T05:55:20.494Z,44.82
2022-08-12T05:57:55.423Z,45.43
2022-08-12T06:00:26.841Z,45.50
2022-08-12T06:03:09.032Z,45.33
2022-08-12T06:05:54.849Z,45.12
2022-08-12T06:08:24.032Z,45.40
2022-08-12T06:10:50.823Z,45.15
2022-08-12T06:13:28.241Z,45.58
2022-08-12T06:16:13.194Z,45.76
2022-08-12T06:18:49.410Z,45.66
2022-08-12T06:21:18.912Z,45.69
2022-08-12T06:23:56.466Z,45.69
2022-08-12T06:26:23.155Z,45.81
2022-08-12T06:29:00.734Z,45.69
2022-08-12T06:31:27.918Z,46.01
2022-08-12T06:34:52.732Z,46.33
2022-08-12T06:36:49.653Z,45.73
2022-08-12T06:39:25.174Z,45.47
2022-08-12T06:42:32.185Z,45.58
2022-08-12T06:44:56.637Z,45.25
2022-08-12T06:47:23.158Z,45.01
2022-08-12T06:49:50.249Z,44.88
2022-08-12T06:52:17.360Z,44.27
2022-08-12T06:54:47.163Z,43.56
2022-08-12T06:58:06.025Z,43.63
2022-08-12T07:00:11.491Z,43.82
2022-08-12T07:02:38.192Z,42.78
2022-08-12T07:05:05.216Z,42.30
2022-08-12T07:07:31.755Z,42.34
2022-08-12T07:10:06.909Z,42.22
2022-08-12T07:12:34.605Z,42.54
2022-08-12T07:15:02.063Z,42.72
2022-08-12T07:17:37.844Z,42.71
2022-08-12T07:20:50.814Z,42.44
2022-08-12T07:23:06.694Z,41.58
2022-08-12T07:25:41.058Z,41.66
2022-08-12T07:28:16.720Z,41.45
2022-08-12T07:30:45.631Z,41.37
2022-08-12T07:33:13.094Z,41.25
2022-08-12T07:35:45.516Z,41.06
2022-08-12T07:38:34.539Z,40.82
2022-08-12T07:41:15.516Z,40.95
2022-08-12T07:43:54.787Z,40.64
2022-08-12T07:46:25.889Z,40.70
2022-08-12T07:48:55.092Z,40.17
2022-08-12T07:51:33.997Z,40.49
2022-08-12T07:54:02.735Z,40.82
2022-08-12T07:56:31.294Z,39.71
2022-08-12T07:58:59.279Z,39.67
2022-08-12T08:01:26.329Z,38.96
2022-08-12T08:04:17.940Z,38.98
2022-08-12T08:06:46.356Z,39.21
2022-08-12T08:09:15.763Z,39.36
2022-08-12T08:12:01.241Z,38.87
2022-08-12T08:14:29.190Z,38.94
2022-08-12T08:16:57.592Z,38.96
2022-08-12T08:19:25.511Z,39.45
2022-08-12T08:21:54.955Z,38.89
2022-08-12T08:24:24.625Z,38.49
2022-08-12T08:26:52.949Z,38.57
2022-08-12T08:29:24.032Z,38.85
2022-08-12T08:31:54.096Z,37.68
2022-08-12T08:34:27.593Z,37.44
2022-08-12T08:37:10.696Z,37.88
2022-08-12T08:39:42.316Z,38.22
2022-08-12T08:42:27.683Z,38.34
2022-08-12T08:44:58.888Z,38.19
2022-08-12T08:47:25.970Z,38.17
2022-08-12T08:49:52.658Z,37.94
2022-08-12T08:52:35.208Z,38.02
2022-08-12T08:55:14.007Z,37.88
2022-08-12T08:57:44.757Z,37.92
2022-08-12T09:00:16.950Z,37.90
2022-08-12T09:02:49.446Z,37.45
2022-08-12T09:05:26.068Z,37.18
2022-08-12T09:08:12.142Z,38.04
2022-08-12T09:10:39.374Z,37.56
2022-08-12T09:14:10.707Z,37.14
2022-08-12T09:16:20.653Z,36.97
2022-08-12T09:21:54.851Z,36.50
2022-08-12T09:24:21.625Z,36.41
2022-08-12T09:26:49.157Z,36.55
2022-08-12T09:29:20.400Z,35.97
2022-08-12T09:32:09.533Z,34.86
2022-08-12T09:34:43.098Z,34.70
2022-08-12T09:37:20.099Z,34.85
2022-08-12T09:40:03.190Z,34.54
2022-08-12T09:43:15.498Z,34.04
2022-08-12T09:46:11.783Z,34.41
2022-08-12T09:48:34.910Z,33.24
2022-08-12T09:51:16.708Z,33.04
2022-08-12T09:54:08.858Z,32.96
2022-08-12T09:56:59.209Z,33.33
2022-08-12T10:00:15.137Z,33.06
2022-08-12T10:02:45.237Z,33.43
2022-08-12T10:05:00.795Z,32.11
2022-08-12T10:07:39.652Z,31.69
2022-08-12T10:10:22.365Z,31.47
2022-08-12T10:13:12.903Z,31.73
2022-08-12T10:16:01.481Z,31.16
2022-08-12T10:18:32.326Z,30.51
2022-08-12T10:20:59.371Z,30.18
2022-08-12T10:23:38.419Z,29.81
2022-08-12T10:26:37.378Z,29.68
2022-08-12T10:30:37.105Z,29.03
2022-08-12T10:32:45.278Z,28.30
2022-08-12T10:35:08.402Z,28.00
2022-08-12T10:38:38.004Z,27.94
2022-08-12T10:40:28.716Z,27.96
2022-08-12T10:43:16.733Z,27.39
2022-08-12T10:45:43.892Z,27.26
2022-08-12T10:48:21.401Z,26.76
2022-08-12T10:51:00.975Z,27.73
2022-08-12T10:53:44.219Z,27.18
2022-08-12T10:56:17.761Z,27.30
2022-08-12T10:58:46.900Z,27.52
2022-08-12T11:04:14.374Z,27.03
2022-08-12T11:04:25.627Z,26.45
2022-08-12T11:07:05.820Z,26.57
2022-08-12T11:09:41.592Z,25.99
2022-08-12T11:12:55.791Z,25.21
2022-08-12T11:15:18.856Z,25.04
2022-08-12T11:17:53.524Z,24.28
2022-08-12T11:20:21.002Z,23.22
2022-08-12T11:22:59.043Z,22.63
2022-08-12T11:25:56.044Z,22.50
2022-08-12T11:28:14.043Z,23.17
2022-08-12T11:30:41.349Z,21.67
2022-08-12T11:33:11.969Z,20.50
2022-08-12T11:35:44.289Z,20.05
2022-08-12T11:38:13.629Z,19.67
2022-08-12T11:40:47.122Z,19.36
2022-08-12T11:43:18.999Z,18.95
2022-08-12T11:45:52.824Z,18.75
2022-08-12T11:48:26.642Z,18.14
2022-08-12T11:50:57.059Z,17.96
2022-08-12T11:53:58.829Z,18.49
2022-08-12T11:56:11.507Z,18.44
2022-08-12T12:01:58.392Z,17.56
2022-08-12T12:02:01.568Z,17.23
2022-08-12T12:04:11.992Z,17.93
2022-08-12T12:06:38.642Z,17.38
2022-08-12T12:09:11.892Z,17.24
2022-08-12T12:11:39.099Z,18.52
2022-08-12T12:14:15.905Z,17.37
2022-08-12T12:16:49.927Z,17.23
2022-08-12T12:19:20.348Z,16.58
2022-08-12T12:21:49.705Z,17.25
2022-08-12T12:24:21.159Z,16.52
2022-08-12T12:26:59.722Z,16.64
2022-08-12T12:30:18.138Z,15.92
2022-08-12T12:32:28.776Z,16.62
2022-08-12T12:35:14.474Z,17.55
2022-08-12T12:38:12.585Z,17.01
2022-08-12T12:40:50.604Z,16.37
2022-08-12T12:43:28.890Z,15.77
2022-08-12T12:46:05.725Z,15.28
2022-08-12T12:48:35.208Z,14.94
2022-08-12T12:51:48.360Z,15.41
2022-08-12T12:54:07.071Z,15.22
2022-08-12T12:56:40.558Z,15.28
2022-08-12T12:59:54.450Z,14.75
2022-08-12T13:01:55.287Z,14.56
2022-08-12T13:04:22.376Z,14.50
2022-08-12T13:06:52.402Z,14.07
2022-08-12T13:09:22.225Z,14.73
2022-08-12T13:11:53.442Z,14.75
2022-08-12T13:14:28.249Z,14.58
2022-08-12T13:17:02.480Z,14.61
2022-08-12T13:19:38.662Z,14.66
2022-08-12T13:22:20.359Z,14.85
2022-08-12T13:24:55.557Z,13.41
2022-08-12T13:27:34.898Z,13.38
2022-08-12T13:30:11.505Z,13.96
2022-08-12T13:32:57.700Z,14.58
2022-08-12T13:35:33.417Z,13.54
2022-08-12T13:38:14.008Z,13.41
2022-08-12T13:40:40.705Z,13.23
2022-08-12T13:43:07.622Z,13.36
2022-08-12T13:45:36.862Z,12.99
2022-08-12T13:48:07.568Z,13.12
2022-08-12T13:50:36.566Z,13.02
2022-08-12T13:53:23.185Z,12.52
2022-08-12T13:55:59.342Z,12.58
2022-08-12T13:58:26.569Z,13.09
2022-08-12T14:00:55.406Z,13.21
2022-08-12T14:03:28.302Z,12.12
2022-08-12T14:06:15.362Z,13.15
2022-08-12T14:08:43.274Z,12.20
2022-08-12T14:11:12.356Z,12.10
2022-08-12T14:14:03.349Z,11.57
2022-08-12T14:16:37.754Z,12.98
2022-08-12T14:19:22.344Z,11.58
2022-08-12T14:21:59.091Z,11.25
2022-08-12T14:24:30.780Z,11.78
2022-08-12T14:26:58.688Z,11.14
2022-08-12T14:29:56.430Z,10.92
2022-08-12T14:32:17.825Z,11.38
2022-08-12T14:34:46.950Z,10.84
2022-08-12T14:37:54.882Z,10.79
2022-08-12T14:40:01.243Z,11.08
2022-08-12T14:42:28.378Z,11.34
2022-08-12T14:45:01.608Z,11.27
2022-08-12T14:47:29.217Z,11.34
2022-08-12T14:50:58.199Z,11.11
2022-08-12T14:58:31.802Z,10.78
2022-08-12T15:01:21.354Z,11.05
2022-08-12T15:03:56.769Z,10.60
2022-08-12T15:06:43.540Z,10.33
2022-08-12T15:09:15.904Z,10.73
2022-08-12T15:11:54.925Z,10.87
2022-08-12T15:14:25.461Z,10.62
2022-08-12T15:16:53.162Z,10.52
2022-08-12T15:20:16.762Z,10.46
2022-08-12T15:22:37.407Z,10.20
2022-08-12T15:24:56.749Z,10.41
2022-08-12T15:28:03.387Z,10.85
2022-08-12T15:30:10.430Z,10.24
2022-08-12T15:32:37.644Z,10.02
2022-08-12T15:35:12.040Z,9.97
2022-08-12T15:38:11.259Z,9.81
2022-08-12T15:40:29.748Z,9.99
2022-08-12T15:42:59.747Z,10.74
2022-08-12T15:45:32.075Z,10.19
2022-08-12T15:48:16.846Z,10.10
2022-08-12T15:50:47.086Z,9.65
2022-08-12T15:53:38.202Z,10.24
2022-08-12T15:56:07.883Z,10.01
2022-08-12T15:58:41.423Z,9.86
2022-08-12T16:01:15.172Z,9.97
2022-08-12T16:04:00.515Z,10.44
2022-08-12T16:06:50.914Z,10.23
2022-08-12T16:09:21.856Z,10.13
2022-08-12T16:12:07.900Z,10.20
2022-08-12T16:14:38.806Z,10.16
2022-08-12T16:17:05.500Z,10.37
2022-08-12T16:20:04.997Z,10.53
2022-08-12T16:22:24.532Z,10.64
2022-08-12T16:24:54.107Z,10.43
2022-08-12T16:27:23.798Z,10.91
2022-08-12T16:29:57.226Z,10.56
2022-08-12T16:32:31.754Z,10.65
2022-08-12T16:35:01.350Z,10.85
2022-08-12T16:38:04.668Z,10.93
2022-08-12T16:40:16.132Z,11.18
2022-08-12T16:42:54.291Z,10.69
2022-08-12T16:46:23.461Z,11.18
2022-08-12T16:48:34.696Z,11.45
2022-08-12T16:51:12.631Z,11.33
2022-08-12T16:53:44.315Z,11.84
2022-08-12T16:56:14.403Z,11.93
2022-08-12T16:58:41.996Z,11.85
2022-08-12T17:01:13.870Z,12.27
2022-08-12T17:03:59.730Z,12.99
2022-08-12T17:06:28.094Z,13.13
2022-08-12T17:09:03.115Z,14.20
2022-08-12T17:11:33.381Z,13.94
2022-08-12T17:14:01.681Z,14.29
2022-08-12T17:16:29.932Z,14.27
2022-08-12T17:19:03.023Z,14.59
2022-08-12T17:21:41.591Z,14.69
2022-08-12T17:24:21.423Z,15.09
2022-08-12T17:26:53.928Z,15.22
2022-08-12T17:33:02.979Z,15.60
2022-08-12T17:35:36.765Z,15.51
2022-08-12T17:38:06.625Z,15.43
2022-08-12T17:40:36.887Z,16.14
2022-08-12T17:43:56.520Z,16.00
2022-08-12T17:45:58.972Z,16.33
2022-08-12T17:48:34.387Z,16.46
2022-08-12T17:51:15.339Z,16.80
2022-08-12T17:54:10.514Z,17.19
2022-08-12T17:56:31.819Z,17.06
2022-08-12T17:59:00.341Z,17.74
2022-08-12T18:01:28.971Z,17.75
2022-08-12T18:04:20.807Z,18.18
2022-08-12T18:06:50.300Z,17.93
2022-08-12T18:09:18.036Z,18.36
2022-08-12T18:12:07.781Z,18.40
2022-08-12T18:14:37.327Z,18.62
2022-08-12T18:17:08.537Z,18.47
2022-08-12T18:20:04.832Z,18.84
2022-08-12T18:22:30.697Z,18.79
2022-08-12T18:25:06.297Z,19.37
2022-08-12T18:27:43.851Z,19.49
2022-08-12T18:30:16.347Z,20.29
2022-08-12T18:32:59.525Z,20.90
2022-08-12T18:35:47.792Z,20.62
2022-08-12T18:38:20.859Z,21.05
2022-08-12T18:41:09.558Z,22.05
2022-08-12T18:43:58.774Z,21.87
2022-08-12T18:46:54.389Z,22.18
2022-08-12T18:49:38.036Z,22.76
2022-08-12T18:52:08.094Z,22.73
2022-08-12T18:54:47.883Z,23.09
2022-08-12T18:58:07.006Z,22.92
2022-08-12T19:00:15.988Z,23.56
2022-08-12T19:02:44.766Z,23.85
2022-08-12T19:05:17.685Z,24.22
2022-08-12T19:08:01.637Z,24.75
2022-08-12T19:10:30.390Z,24.13
2022-08-12T19:13:20.982Z,24.51
2022-08-12T19:15:49.984Z,22.83
2022-08-12T19:18:17.644Z,24.36
2022-08-12T19:20:50.669Z,24.93
2022-08-12T19:23:21.224Z,25.33
2022-08-12T19:25:59.530Z,25.53
2022-08-12T19:28:30.326Z,25.06
2022-08-12T19:31:56.633Z,25.35
2022-08-12T19:38:02.738Z,26.76
2022-08-12T19:40:31.452Z,26.01
2022-08-12T19:43:17.319Z,26.39
2022-08-12T19:45:50.532Z,27.23
2022-08-12T19:48:23.164Z,27.57
2022-08-12T19:50:53.503Z,27.09
2022-08-12T19:53:24.279Z,27.65
2022-08-12T19:55:53.993Z,27.19
2022-08-12T19:58:22.259Z,27.34
2022-08-12T20:00:53.222Z,27.78
2022-08-12T20:03:38.767Z,28.03
2022-08-12T20:06:13.696Z,27.96
2022-08-12T20:08:49.218Z,28.31
2022-08-12T20:12:10.250Z,28.24
2022-08-12T20:14:19.276Z,28.59
2022-08-12T20:16:56.373Z,28.52
2022-08-12T20:19:53.076Z,28.67
2022-08-12T20:22:23.948Z,28.82
2022-08-12T20:24:54.904Z,28.56
2022-08-12T20:27:29.044Z,28.84
2022-08-12T20:30:11.520Z,28.32
2022-08-12T20:33:00.573Z,27.89
2022-08-12T20:35:38.947Z,28.75
2022-08-12T20:38:26.556Z,28.72
2022-08-12T20:40:54.865Z,28.71
2022-08-12T20:43:24.129Z,28.81
2022-08-12T20:45:57.242Z,28.31
2022-08-12T20:48:25.290Z,28.79
2022-08-12T20:50:54.032Z,28.36
2022-08-12T20:53:27.776Z,28.42
2022-08-12T20:56:31.152Z,28.79
2022-08-12T20:59:01.113Z,28.28
2022-08-12T21:01:45.908Z,28.21
2022-08-12T21:04:33.029Z,28.42
2022-08-12T21:07:04.578Z,28.31
2022-08-12T21:09:42.467Z,28.79
2022-08-12T21:12:27.346Z,28.48
2022-08-12T21:15:04.486Z,28.79
2022-08-12T21:18:00.700Z,29.02
2022-08-12T21:20:32.492Z,28.95
2022-08-12T21:22:59.039Z,28.77
2022-08-12T21:25:44.179Z,28.84
2022-08-12T21:28:15.181Z,28.87
2022-08-12T21:31:10.462Z,28.87
2022-08-12T21:33:31.610Z,29.22
2022-08-12T21:36:01.014Z,28.83
2022-08-12T21:38:34.932Z,28.60
2022-08-12T21:41:07.002Z,28.77
2022-08-12T21:43:44.785Z,28.53
2022-08-12T21:46:34.966Z,28.71
2022-08-12T21:49:05.134Z,28.52
2022-08-12T21:51:49.000Z,28.78
2022-08-12T21:54:23.174Z,29.41
2022-08-12T21:56:53.670Z,28.46
2022-08-12T21:59:21.791Z,28.50
2022-08-12T22:01:49.771Z,28.97
2022-08-12T22:04:36.302Z,29.21
2022-08-12T22:07:04.509Z,28.08
2022-08-12T22:09:43.282Z,28.86
2022-08-12T22:12:28.886Z,28.66
2022-08-12T22:14:55.457Z,28.43
2022-08-12T22:17:49.420Z,28.19
2022-08-12T22:20:17.445Z,28.40
2022-08-12T22:22:56.660Z,29.05
2022-08-12T22:25:27.724Z,29.09
2022-08-12T22:28:13.093Z,28.92
2022-08-12T22:31:06.797Z,29.33
2022-08-12T22:33:54.407Z,29.57
2022-08-12T22:36:28.799Z,29.48
2022-08-12T22:38:59.027Z,29.84
2022-08-12T22:41:45.143Z,29.94
2022-08-12T22:44:30.986Z,29.68
2022-08-12T22:47:03.407Z,29.72
2022-08-12T22:49:37.375Z,29.94
2022-08-12T22:52:18.654Z,30.03
2022-08-12T22:55:03.300Z,29.94
2022-08-12T22:57:49.413Z,29.82
2022-08-12T23:00:27.074Z,30.12
2022-08-12T23:02:56.920Z,30.17
2022-08-12T23:05:57.058Z,29.96
2022-08-12T23:08:13.657Z,30.14
2022-08-12T23:10:41.146Z,30.20
2022-08-12T23:13:30.186Z,30.57
2022-08-12T23:16:10.888Z,30.14
2022-08-12T23:19:01.594Z,30.00
2022-08-12T23:22:05.559Z,30.49
2022-08-12T23:24:35.122Z,30.42
2022-08-12T23:27:21.923Z,30.07
2022-08-12T23:30:05.898Z,30.17
2022-08-12T23:32:37.011Z,30.37
2022-08-12T23:35:06.457Z,30.56
2022-08-12T23:37:46.630Z,30.68
2022-08-12T23:40:17.869Z,30.46
2022-08-12T23:42:45.283Z,30.88
2022-08-12T23:45:20.165Z,30.55
2022-08-12T23:48:00.014Z,31.03
2022-08-12T23:50:34.049Z,30.80
2022-08-12T23:53:05.805Z,31.53
2022-08-12T23:55:40.797Z,31.64
2022-08-12T23:58:20.848Z,31.11
